Map

Track Data

SID SEASON NUMBER BASIN SUBBASIN NAME ISO_TIME NATURE LAT LON WMO_WIND WMO_PRES WMO_AGENCY TRACK_TYPE DIST2LAND LANDFALL IFLAG USA_AGENCY USA_ATCF_ID USA_LAT USA_LON USA_RECORD USA_STATUS USA_WIND USA_PRES USA_SSHS USA_R34_NE USA_R34_SE USA_R34_SW USA_R34_NW USA_R50_NE USA_R50_SE USA_R50_SW USA_R50_NW USA_R64_NE USA_R64_SE USA_R64_SW USA_R64_NW USA_POCI USA_ROCI USA_RMW USA_EYE TOKYO_LAT TOKYO_LON TOKYO_GRADE TOKYO_WIND TOKYO_PRES TOKYO_R50_DIR TOKYO_R50_LONG TOKYO_R50_SHORT TOKYO_R30_DIR TOKYO_R30_LONG TOKYO_R30_SHORT TOKYO_LAND CMA_LAT CMA_LON CMA_CAT CMA_WIND CMA_PRES HKO_LAT HKO_LON HKO_CAT HKO_WIND HKO_PRES NEWDELHI_LAT NEWDELHI_LON NEWDELHI_GRADE NEWDELHI_WIND NEWDELHI_PRES NEWDELHI_CI NEWDELHI_DP NEWDELHI_POCI REUNION_LAT REUNION_LON REUNION_TYPE REUNION_WIND REUNION_PRES REUNION_TNUM REUNION_CI REUNION_RMW REUNION_R34_NE REUNION_R34_SE REUNION_R34_SW REUNION_R34_NW REUNION_R50_NE REUNION_R50_SE REUNION_R50_SW REUNION_R50_NW REUNION_R64_NE REUNION_R64_SE REUNION_R64_SW REUNION_R64_NW BOM_LAT BOM_LON BOM_TYPE BOM_WIND BOM_PRES BOM_TNUM BOM_CI BOM_RMW BOM_R34_NE BOM_R34_SE BOM_R34_SW BOM_R34_NW BOM_R50_NE BOM_R50_SE BOM_R50_SW BOM_R50_NW BOM_R64_NE BOM_R64_SE BOM_R64_SW BOM_R64_NW BOM_ROCI BOM_POCI BOM_EYE BOM_POS_METHOD BOM_PRES_METHOD NADI_LAT NADI_LON NADI_CAT NADI_WIND NADI_PRES WELLINGTON_LAT WELLINGTON_LON WELLINGTON_WIND WELLINGTON_PRES DS824_LAT DS824_LON DS824_STAGE DS824_WIND DS824_PRES TD9636_LAT TD9636_LON TD9636_STAGE TD9636_WIND TD9636_PRES TD9635_LAT TD9635_LON TD9635_WIND TD9635_PRES TD9635_ROCI NEUMANN_LAT NEUMANN_LON NEUMANN_CLASS NEUMANN_WIND NEUMANN_PRES MLC_LAT MLC_LON MLC_CLASS MLC_WIND MLC_PRES USA_GUST BOM_GUST BOM_GUST_PER REUNION_GUST REUNION_GUST_PER USA_SEAHGT USA_SEARAD_NE USA_SEARAD_SE USA_SEARAD_SW USA_SEARAD_NW STORM_SPEED STORM_DIR
1957245N13339 1957 51 NA NA CARRIE 1957-09-02 06:00:00 TS 13.0000 -21.3000 25 hurdat_atl main 452 452 O_____________ hurdat_atl AL041957 13.0000 -21.3000 TD 25 -1 9 270
1957245N13339 1957 51 NA NA CARRIE 1957-09-02 09:00:00 TS 13.0027 -21.7500 main 491 491 P_____________ AL041957 13.0027 -21.7500 TD 25 -1 9 270
1957245N13339 1957 51 NA NA CARRIE 1957-09-02 12:00:00 TS 13.0000 -22.2000 25 hurdat_atl main 542 542 O_____________ hurdat_atl AL041957 13.0000 -22.2000 TD 25 -1 9 269
1957245N13339 1957 51 NA NA CARRIE 1957-09-02 15:00:00 TS 12.9924 -22.6500 main 593 593 P_____________ AL041957 12.9924 -22.6500 TD 25 -1 9 270
1957245N13339 1957 51 NA NA CARRIE 1957-09-02 18:00:00 TS 13.0000 -23.1000 25 hurdat_atl main 634 634 O_____________ hurdat_atl AL041957 13.0000 -23.1000 TD 25 -1 9 272
1957245N13339 1957 51 NA NA CARRIE 1957-09-02 21:00:00 TS 13.0274 -23.5426 main 675 675 P_____________ AL041957 13.0274 -23.5426 TD 25 -1 9 277
1957245N13339 1957 51 NA NA CARRIE 1957-09-03 00:00:00 TS 13.1000 -24.0000 25 hurdat_atl main 724 724 O_____________ hurdat_atl AL041957 13.1000 -24.0000 TD 25 -1 10 283
1957245N13339 1957 51 NA NA CARRIE 1957-09-03 03:00:00 TS 13.2350 -24.5000 main 774 774 P_____________ AL041957 13.2350 -24.5000 TD 27 -1 10 287
1957245N13339 1957 51 NA NA CARRIE 1957-09-03 06:00:00 TS 13.4000 -25.0000 30 hurdat_atl main 822 822 O_____________ hurdat_atl AL041957 13.4000 -25.0000 TD 30 -1 10 289
1957245N13339 1957 51 NA NA CARRIE 1957-09-03 09:00:00 TS 13.5574 -25.4575 main 871 871 P_____________ AL041957 13.5574 -25.4575 TD 32 -1 9 289
1957245N13339 1957 51 NA NA CARRIE 1957-09-03 12:00:00 TS 13.7000 -25.9000 35 hurdat_atl main 912 912 O_____________ hurdat_atl AL041957 13.7000 -25.9000 TS 35 0 9 286
1957245N13339 1957 51 NA NA CARRIE 1957-09-03 15:00:00 TS 13.8074 -26.3501 main 964 964 P_____________ AL041957 13.8074 -26.3501 TS 35 0 9 283
1957245N13339 1957 51 NA NA CARRIE 1957-09-03 18:00:00 TS 13.9000 -26.8000 35 hurdat_atl main 1006 1006 O_____________ hurdat_atl AL041957 13.9000 -26.8000 TS 35 0 9 282
1957245N13339 1957 51 NA NA CARRIE 1957-09-03 21:00:00 TS 13.9999 -27.2500 main 1059 1059 P_____________ AL041957 13.9999 -27.2500 TS 37 0 9 283
1957245N13339 1957 51 NA NA CARRIE 1957-09-04 00:00:00 TS 14.1000 -27.7000 40 hurdat_atl main 1101 1101 O_____________ hurdat_atl AL041957 14.1000 -27.7000 TS 40 0 9 283
1957245N13339 1957 51 NA NA CARRIE 1957-09-04 03:00:00 TS 14.1999 -28.1426 main 1143 1143 P_____________ AL041957 14.1999 -28.1426 TS 42 0 9 283
1957245N13339 1957 51 NA NA CARRIE 1957-09-04 06:00:00 TS 14.3000 -28.6000 45 hurdat_atl main 1196 1196 O_____________ hurdat_atl AL041957 14.3000 -28.6000 TS 45 0 9 283
1957245N13339 1957 51 NA NA CARRIE 1957-09-04 09:00:00 TS 14.4149 -29.0924 main 1249 1249 P_____________ AL041957 14.4149 -29.0924 TS 47 0 10 282
1957245N13339 1957 51 NA NA CARRIE 1957-09-04 12:00:00 TS 14.5000 -29.6000 50 hurdat_atl main 1302 1302 O_____________ hurdat_atl AL041957 14.5000 -29.6000 TS 50 0 10 276
1957245N13339 1957 51 NA NA CARRIE 1957-09-04 15:00:00 TS 14.5149 -30.1001 main 1356 1356 P_____________ AL041957 14.5149 -30.1001 TS 52 0 10 270
1957245N13339 1957 51 NA NA CARRIE 1957-09-04 18:00:00 TS 14.5000 -30.6000 55 hurdat_atl main 1410 1410 O_____________ hurdat_atl AL041957 14.5000 -30.6000 TS 55 0 10 269
1957245N13339 1957 51 NA NA CARRIE 1957-09-04 21:00:00 TS 14.4999 -31.1000 main 1464 1464 P_____________ AL041957 14.4999 -31.1000 TS 57 0 10 270
1957245N13339 1957 51 NA NA CARRIE 1957-09-05 00:00:00 TS 14.5000 -31.6000 60 hurdat_atl main 1517 1517 O_____________ hurdat_atl AL041957 14.5000 -31.6000 TS 60 0 10 269
1957245N13339 1957 51 NA NA CARRIE 1957-09-05 03:00:00 TS 14.4849 -32.1001 main 1571 1571 P_____________ AL041957 14.4849 -32.1001 TS 62 0 10 270
1957245N13339 1957 51 NA NA CARRIE 1957-09-05 06:00:00 TS 14.5000 -32.6000 65 hurdat_atl main 1625 1625 O_____________ hurdat_atl AL041957 14.5000 -32.6000 HU 65 1 10 276
1957245N13339 1957 51 NA NA CARRIE 1957-09-05 09:00:00 TS 14.5849 -33.0999 main 1678 1678 P_____________ AL041957 14.5849 -33.0999 HU 67 1 10 282
1957245N13339 1957 51 NA NA CARRIE 1957-09-05 12:00:00 TS 14.7000 -33.6000 70 hurdat_atl main 1732 1732 O_____________ hurdat_atl AL041957 14.7000 -33.6000 HU 70 1 10 283
1957245N13339 1957 51 NA NA CARRIE 1957-09-05 15:00:00 TS 14.7999 -34.1000 main 1785 1785 P_____________ AL041957 14.7999 -34.1000 HU 72 1 10 282
1957245N13339 1957 51 NA NA CARRIE 1957-09-05 18:00:00 TS 14.9000 -34.6000 75 hurdat_atl main 1838 1838 O_____________ hurdat_atl AL041957 14.9000 -34.6000 HU 75 1 10 281
1957245N13339 1957 51 NA NA CARRIE 1957-09-05 21:00:00 TS 14.9924 -35.1001 main 1892 1892 P_____________ AL041957 14.9924 -35.1001 HU 77 1 10 282
1957245N13339 1957 51 NA NA CARRIE 1957-09-06 00:00:00 TS 15.1000 -35.6000 80 hurdat_atl main 1945 1945 O_____________ hurdat_atl AL041957 15.1000 -35.6000 HU 80 1 10 284
1957245N13339 1957 51 NA NA CARRIE 1957-09-06 03:00:00 TS 15.2424 -36.1075 main 1999 1999 P_____________ AL041957 15.2424 -36.1075 HU 80 1 10 287
1957245N13339 1957 51 NA NA CARRIE 1957-09-06 06:00:00 TS 15.4000 -36.6000 80 hurdat_atl main 2033 2005 O_____________ hurdat_atl AL041957 15.4000 -36.6000 HU 80 1 10 289
1957245N13339 1957 51 NA NA CARRIE 1957-09-06 09:00:00 TS 15.5574 -37.0650 main 2003 1977 P_____________ AL041957 15.5574 -37.0650 HU 82 1 9 289
1957245N13339 1957 51 NA NA CARRIE 1957-09-06 12:00:00 TS 15.7000 -37.5000 85 hurdat_atl main 1977 1951 O_____________ hurdat_atl AL041957 15.7000 -37.5000 HU 85 2 9 287
1957245N13339 1957 51 NA NA CARRIE 1957-09-06 15:00:00 TS 15.8074 -37.9076 main 1951 1925 P_____________ AL041957 15.8074 -37.9076 HU 90 2 8 285
1957245N13339 1957 51 NA NA CARRIE 1957-09-06 18:00:00 TS 15.9000 -38.3000 95 hurdat_atl main 1925 1901 O_____________ hurdat_atl AL041957 15.9000 -38.3000 HU 95 2 8 284
1957245N13339 1957 51 NA NA CARRIE 1957-09-06 21:00:00 TS 15.9924 -38.6926 main 1901 1877 P_____________ AL041957 15.9924 -38.6926 HU 97 3 8 285
1957245N13339 1957 51 NA NA CARRIE 1957-09-07 00:00:00 TS 16.1000 -39.1000 100 hurdat_atl main 1877 1854 O_____________ hurdat_atl AL041957 16.1000 -39.1000 HU 100 3 8 287
1957245N13339 1957 51 NA NA CARRIE 1957-09-07 03:00:00 TS 16.2424 -39.5350 main 1854 1833 P_____________ AL041957 16.2424 -39.5350 HU 102 3 9 289
1957245N13339 1957 51 NA NA CARRIE 1957-09-07 06:00:00 TS 16.4000 -40.0000 105 hurdat_atl main 1833 1805 O_____________ hurdat_atl AL041957 16.4000 -40.0000 HU 105 3 10 289
1957245N13339 1957 51 NA NA CARRIE 1957-09-07 09:00:00 TS 16.5499 -40.4926 main 1805 1786 P_____________ AL041957 16.5499 -40.4926 HU 107 3 10 287
1957245N13339 1957 51 NA NA CARRIE 1957-09-07 12:00:00 TS 16.7000 -41.0000 110 hurdat_atl main 1786 1761 O_____________ hurdat_atl AL041957 16.7000 -41.0000 HU 110 3 10 287
1957245N13339 1957 51 NA NA CARRIE 1957-09-07 15:00:00 TS 16.8424 -41.5076 main 1761 1747 P_____________ AL041957 16.8424 -41.5076 HU 112 3 10 287
1957245N13339 1957 51 NA NA CARRIE 1957-09-07 18:00:00 TS 17.0000 -42.0000 115 hurdat_atl main 1747 1737 O_____________ hurdat_atl AL041957 17.0000 -42.0000 HU 115 4 10 291
1957245N13339 1957 51 NA NA CARRIE 1957-09-07 21:00:00 TS 17.1999 -42.4650 main 1734 1724 P_____________ AL041957 17.1999 -42.4650 HU 117 4 10 295
1957245N13339 1957 51 NA NA CARRIE 1957-09-08 00:00:00 TS 17.4000 -42.9000 120 945 hurdat_atl main 1726 1709 O_____________ hurdat_atl AL041957 17.4000 -42.9000 HU 120 945 4 9 294
1957245N13339 1957 51 NA NA CARRIE 1957-09-08 03:00:00 TS 17.5649 -43.3076 main 1718 1702 P_____________ AL041957 17.5649 -43.3076 HU 120 4 8 291
1957245N13339 1957 51 NA NA CARRIE 1957-09-08 06:00:00 TS 17.7000 -43.7000 120 hurdat_atl main 1702 1686 O_____________ hurdat_atl AL041957 17.7000 -43.7000 HU 120 4 8 288
1957245N13339 1957 51 NA NA CARRIE 1957-09-08 09:00:00 TS 17.8150 -44.1075 main 1686 1672 P_____________ AL041957 17.8150 -44.1075 HU 120 4 8 285
1957245N13339 1957 51 NA NA CARRIE 1957-09-08 12:00:00 TS 17.9000 -44.5000 120 hurdat_atl main 1672 1655 O_____________ hurdat_atl AL041957 17.9000 -44.5000 HU 120 4 7 281
1957245N13339 1957 51 NA NA CARRIE 1957-09-08 15:00:00 TS 17.9573 -44.8426 main 1665 1643 P_____________ AL041957 17.9573 -44.8426 HU 120 4 7 279
1957245N13339 1957 51 NA NA CARRIE 1957-09-08 18:00:00 TS 18.0000 -45.2000 120 hurdat_atl main 1643 1622 O_____________ hurdat_atl AL041957 18.0000 -45.2000 HU 120 4 7 277
1957245N13339 1957 51 NA NA CARRIE 1957-09-08 21:00:00 TS 18.0424 -45.6201 main 1622 1607 P_____________ AL041957 18.0424 -45.6201 HU 117 4 9 277
1957245N13339 1957 51 NA NA CARRIE 1957-09-09 00:00:00 TS 18.1000 -46.1000 115 hurdat_atl main 1607 1588 O_____________ hurdat_atl AL041957 18.1000 -46.1000 HU 115 4 10 278
1957245N13339 1957 51 NA NA CARRIE 1957-09-09 03:00:00 TS 18.1775 -46.6426 main 1593 1576 P_____________ AL041957 18.1775 -46.6426 HU 110 3 11 281
1957245N13339 1957 51 NA NA CARRIE 1957-09-09 06:00:00 TS 18.3000 -47.2000 105 hurdat_atl main 1577 1571 O_____________ hurdat_atl AL041957 18.3000 -47.2000 HU 105 3 11 287
1957245N13339 1957 51 NA NA CARRIE 1957-09-09 09:00:00 TS 18.4849 -47.7150 main 1577 1567 P_____________ AL041957 18.4849 -47.7150 HU 100 3 10 293
1957245N13339 1957 51 NA NA CARRIE 1957-09-09 12:00:00 TS 18.7000 -48.2000 95 hurdat_atl main 1574 1569 O_____________ hurdat_atl AL041957 18.7000 -48.2000 HU 95 2 10 295
1957245N13339 1957 51 NA NA CARRIE 1957-09-09 15:00:00 TS 18.9074 -48.6650 main 1572 1571 P_____________ AL041957 18.9074 -48.6650 HU 90 2 9 295
1957245N13339 1957 51 NA NA CARRIE 1957-09-09 18:00:00 TS 19.1000 -49.1000 85 975 hurdat_atl main 1577 1558 O_____________ hurdat_atl AL041957 19.1000 -49.1000 HU 85 975 2 9 294
1957245N13339 1957 51 NA NA CARRIE 1957-09-09 21:00:00 TS 19.2574 -49.5076 main 1565 1538 P_____________ AL041957 19.2574 -49.5076 HU 82 975 1 8 292
1957245N13339 1957 51 NA NA CARRIE 1957-09-10 00:00:00 TS 19.4000 -49.9000 80 hurdat_atl main 1538 1512 I_____________ hurdat_atl AL041957 19.4000 -49.9000 HU 80 976 1 8 292
1957245N13339 1957 51 NA NA CARRIE 1957-09-10 03:00:00 TS 19.5575 -50.3075 main 1519 1494 P_____________ AL041957 19.5575 -50.3075 HU 77 976 1 8 292
1957245N13339 1957 51 NA NA CARRIE 1957-09-10 06:00:00 TS 19.7000 -50.7000 75 977 hurdat_atl main 1494 1478 O_____________ hurdat_atl AL041957 19.7000 -50.7000 HU 75 977 1 8 289
1957245N13339 1957 51 NA NA CARRIE 1957-09-10 09:00:00 TS 19.8074 -51.0651 main 1470 1455 P_____________ AL041957 19.8074 -51.0651 HU 72 981 1 7 287
1957245N13339 1957 51 NA NA CARRIE 1957-09-10 12:00:00 TS 19.9000 -51.4000 70 985 hurdat_atl main 1455 1440 O_____________ hurdat_atl AL041957 19.9000 -51.4000 HU 70 985 1 7 287
1957245N13339 1957 51 NA NA CARRIE 1957-09-10 15:00:00 TS 20.0000 -51.7300 main 1440 1426 P_____________ AL041957 20.0000 -51.7300 HU 67 1 6 290
1957245N13339 1957 51 NA NA CARRIE 1957-09-10 18:00:00 TS 20.1000 -52.0000 65 hurdat_atl main 1426 1419 O_____________ hurdat_atl AL041957 20.1000 -52.0000 HU 65 1 5 294
1957245N13339 1957 51 NA NA CARRIE 1957-09-10 21:00:00 TS 20.1924 -52.1875 main 1420 1409 P_____________ AL041957 20.1924 -52.1875 HU 65 1 3 305
1957245N13339 1957 51 NA NA CARRIE 1957-09-11 00:00:00 TS 20.3000 -52.3000 65 hurdat_atl main 1411 1401 O_____________ hurdat_atl AL041957 20.3000 -52.3000 HU 65 1 3 325
1957245N13339 1957 51 NA NA CARRIE 1957-09-11 03:00:00 TS 20.4425 -52.3725 main 1401 1401 P_____________ AL041957 20.4425 -52.3725 HU 65 1 3 343
1957245N13339 1957 51 NA NA CARRIE 1957-09-11 06:00:00 TS 20.6000 -52.4000 65 985 hurdat_atl main 1404 1404 O_____________ hurdat_atl AL041957 20.6000 -52.4000 HU 65 985 1 3 354
1957245N13339 1957 51 NA NA CARRIE 1957-09-11 09:00:00 TS 20.7500 -52.4075 main 1408 1406 P_____________ AL041957 20.7500 -52.4075 HU 65 984 1 3 0
1957245N13339 1957 51 NA NA CARRIE 1957-09-11 12:00:00 TS 20.9000 -52.4000 65 984 hurdat_atl main 1409 1409 O_____________ hurdat_atl AL041957 20.9000 -52.4000 HU 65 984 1 3 5
1957245N13339 1957 51 NA NA CARRIE 1957-09-11 15:00:00 TS 21.0425 -52.4000 main 1411 1411 P_____________ AL041957 21.0425 -52.4000 HU 67 981 1 3 0
1957245N13339 1957 51 NA NA CARRIE 1957-09-11 18:00:00 TS 21.2000 -52.4000 70 978 hurdat_atl main 1415 1415 O_____________ hurdat_atl AL041957 21.2000 -52.4000 HU 70 978 1 3 2
1957245N13339 1957 51 NA NA CARRIE 1957-09-11 21:00:00 TS 21.3850 -52.3925 main 1419 1419 P_____________ AL041957 21.3850 -52.3925 HU 75 1 4 0
1957245N13339 1957 51 NA NA CARRIE 1957-09-12 00:00:00 TS 21.6000 -52.4000 80 hurdat_atl main 1424 1424 O_____________ hurdat_atl AL041957 21.6000 -52.4000 HU 80 1 4 355
1957245N13339 1957 51 NA NA CARRIE 1957-09-12 03:00:00 TS 21.8275 -52.4425 main 1429 1421 P_____________ AL041957 21.8275 -52.4425 HU 82 1 5 349
1957245N13339 1957 51 NA NA CARRIE 1957-09-12 06:00:00 TS 22.1000 -52.5000 85 hurdat_atl main 1427 1427 O_____________ hurdat_atl AL041957 22.1000 -52.5000 HU 85 2 6 351
1957245N13339 1957 51 NA NA CARRIE 1957-09-12 09:00:00 TS 22.4275 -52.5500 main 1425 1425 P_____________ AL041957 22.4275 -52.5500 HU 87 2 7 353
1957245N13339 1957 51 NA NA CARRIE 1957-09-12 12:00:00 TS 22.8000 -52.6000 90 960 hurdat_atl main 1438 1438 O_____________ hurdat_atl AL041957 22.8000 -52.6000 HU 90 960 2 8 352
1957245N13339 1957 51 NA NA CARRIE 1957-09-12 15:00:00 TS 23.2000 -52.6649 main 1443 1443 P_____________ AL041957 23.2000 -52.6649 HU 92 958 2 8 354
1957245N13339 1957 51 NA NA CARRIE 1957-09-12 18:00:00 TS 23.6000 -52.7000 95 957 hurdat_atl main 1458 1458 O_____________ hurdat_atl AL041957 23.6000 -52.7000 HU 95 957 2 8 358
1957245N13339 1957 51 NA NA CARRIE 1957-09-12 21:00:00 TS 23.9575 -52.6651 main 1475 1475 P_____________ AL041957 23.9575 -52.6651 HU 97 955 3 7 7
1957245N13339 1957 51 NA NA CARRIE 1957-09-13 00:00:00 TS 24.3000 -52.6000 100 hurdat_atl main 1497 1497 I_____________ hurdat_atl AL041957 24.3000 -52.6000 HU 100 954 3 7 8
1957245N13339 1957 51 NA NA CARRIE 1957-09-13 03:00:00 TS 24.6500 -52.5500 main 1525 1520 P_____________ AL041957 24.6500 -52.5500 HU 102 952 3 7 7
1957245N13339 1957 51 NA NA CARRIE 1957-09-13 06:00:00 TS 25.0000 -52.5000 105 951 hurdat_atl main 1539 1539 O_____________ hurdat_atl AL041957 25.0000 -52.5000 HU 105 951 3 7 6
1957245N13339 1957 51 NA NA CARRIE 1957-09-13 09:00:00 TS 25.3500 -52.4574 main 1554 1554 P_____________ AL041957 25.3500 -52.4574 HU 102 952 3 7 7
1957245N13339 1957 51 NA NA CARRIE 1957-09-13 12:00:00 TS 25.7000 -52.4000 100 953 hurdat_atl main 1584 1584 O_____________ hurdat_atl AL041957 25.7000 -52.4000 HU 100 953 3 7 12
1957245N13339 1957 51 NA NA CARRIE 1957-09-13 15:00:00 TS 26.0500 -52.2852 main 1614 1614 P_____________ AL041957 26.0500 -52.2852 HU 95 958 2 7 15
1957245N13339 1957 51 NA NA CARRIE 1957-09-13 18:00:00 TS 26.4000 -52.2000 90 963 hurdat_atl main 1640 1640 O_____________ hurdat_atl AL041957 26.4000 -52.2000 HU 90 963 2 7 5
1957245N13339 1957 51 NA NA CARRIE 1957-09-13 21:00:00 TS 26.7575 -52.2199 main 1663 1660 P_____________ AL041957 26.7575 -52.2199 HU 90 963 2 7 353
1957245N13339 1957 51 NA NA CARRIE 1957-09-14 00:00:00 TS 27.1000 -52.3000 90 hurdat_atl main 1672 1672 I_____________ hurdat_atl AL041957 27.1000 -52.3000 HU 90 963 2 7 349
1957245N13339 1957 51 NA NA CARRIE 1957-09-14 03:00:00 TS 27.4224 -52.3701 main 1682 1682 P_____________ AL041957 27.4224 -52.3701 HU 90 963 2 6 344
1957245N13339 1957 51 NA NA CARRIE 1957-09-14 06:00:00 TS 27.7000 -52.5000 90 964 hurdat_atl main 1693 1690 O_____________ hurdat_atl AL041957 27.7000 -52.5000 HU 90 964 2 6 330
1957245N13339 1957 51 NA NA CARRIE 1957-09-14 09:00:00 TS 27.9223 -52.6901 main 1690 1680 P_____________ AL041957 27.9223 -52.6901 HU 90 964 2 6 312
1957245N13339 1957 51 NA NA CARRIE 1957-09-14 12:00:00 TS 28.1000 -53.0000 90 964 hurdat_atl main 1680 1656 O_____________ hurdat_atl AL041957 28.1000 -53.0000 HU 90 964 2 7 296
1957245N13339 1957 51 NA NA CARRIE 1957-09-14 15:00:00 TS 28.2500 -53.4478 main 1656 1625 P_____________ AL041957 28.2500 -53.4478 HU 90 963 2 9 289
1957245N13339 1957 51 NA NA CARRIE 1957-09-14 18:00:00 TS 28.4000 -54.0000 90 963 hurdat_atl main 1625 1603 O_____________ hurdat_atl AL041957 28.4000 -54.0000 HU 90 963 2 10 289
1957245N13339 1957 51 NA NA CARRIE 1957-09-14 21:00:00 TS 28.5848 -54.5777 main 1597 1570 P_____________ AL041957 28.5848 -54.5777 HU 90 964 2 11 291
1957245N13339 1957 51 NA NA CARRIE 1957-09-15 00:00:00 TS 28.8000 -55.2000 90 hurdat_atl main 1570 1546 I_____________ hurdat_atl AL041957 28.8000 -55.2000 HU 90 965 2 12 292
1957245N13339 1957 51 NA NA CARRIE 1957-09-15 03:00:00 TS 29.0273 -55.8429 main 1546 1525 P_____________ AL041957 29.0273 -55.8429 HU 87 966 2 12 294
1957245N13339 1957 51 NA NA CARRIE 1957-09-15 06:00:00 TS 29.3000 -56.5000 85 967 hurdat_atl main 1528 1515 O_____________ hurdat_atl AL041957 29.3000 -56.5000 HU 85 967 2 13 297
1957245N13339 1957 51 NA NA CARRIE 1957-09-15 09:00:00 TS 29.6274 -57.1651 main 1513 1509 P_____________ AL041957 29.6274 -57.1651 HU 87 966 2 13 302
1957245N13339 1957 51 NA NA CARRIE 1957-09-15 12:00:00 TS 30.0000 -57.8000 90 965 hurdat_atl main 1517 1511 O_____________ hurdat_atl AL041957 30.0000 -57.8000 HU 90 965 2 13 307
1957245N13339 1957 51 NA NA CARRIE 1957-09-15 15:00:00 TS 30.4072 -58.3726 main 1524 1522 P_____________ AL041957 30.4072 -58.3726 HU 90 963 2 12 310
1957245N13339 1957 51 NA NA CARRIE 1957-09-15 18:00:00 TS 30.8000 -58.9000 90 961 hurdat_atl main 1522 1474 O_____________ hurdat_atl AL041957 30.8000 -58.9000 HU 90 961 2 11 309
1957245N13339 1957 51 NA NA CARRIE 1957-09-15 21:00:00 TS 31.1147 -59.4081 main 1474 1428 P_____________ AL041957 31.1147 -59.4081 HU 90 962 2 10 305
1957245N13339 1957 51 NA NA CARRIE 1957-09-16 00:00:00 TS 31.4000 -59.9000 90 964 hurdat_atl main 1428 1382 O_____________ hurdat_atl AL041957 31.4000 -59.9000 HU 90 964 2 10 305
1957245N13339 1957 51 NA NA CARRIE 1957-09-16 03:00:00 TS 31.7072 -60.3928 main 1382 1336 P_____________ AL041957 31.7072 -60.3928 HU 87 965 2 10 305
1957245N13339 1957 51 NA NA CARRIE 1957-09-16 06:00:00 TS 32.0000 -60.9000 85 966 hurdat_atl main 1336 1302 O_____________ hurdat_atl AL041957 32.0000 -60.9000 HU 85 966 2 11 301
1957245N13339 1957 51 NA NA CARRIE 1957-09-16 09:00:00 TS 32.2425 -61.4580 main 1297 1244 P_____________ AL041957 32.2425 -61.4580 HU 82 967 1 11 298
1957245N13339 1957 51 NA NA CARRIE 1957-09-16 12:00:00 TS 32.5000 -62.0000 80 969 hurdat_atl main 1244 1190 O_____________ hurdat_atl AL041957 32.5000 -62.0000 HU 80 969 1 10 304
1957245N13339 1957 51 NA NA CARRIE 1957-09-16 15:00:00 TS 32.8348 -62.4801 main 1190 1133 P_____________ AL041957 32.8348 -62.4801 HU 80 969 1 10 313
1957245N13339 1957 51 NA NA CARRIE 1957-09-16 18:00:00 TS 33.2000 -62.9000 80 hurdat_atl main 1133 1090 I_____________ hurdat_atl AL041957 33.2000 -62.9000 HU 80 969 1 10 317
1957245N13339 1957 51 NA NA CARRIE 1957-09-16 21:00:00 TS 33.5498 -63.2655 main 1085 1033 P_____________ AL041957 33.5498 -63.2655 HU 80 969 1 9 320
1957245N13339 1957 51 NA NA CARRIE 1957-09-17 00:00:00 TS 33.9000 -63.6000 80 970 hurdat_atl main 1033 985 O_____________ hurdat_atl AL041957 33.9000 -63.6000 HU 80 970 1 9 319
1957245N13339 1957 51 NA NA CARRIE 1957-09-17 03:00:00 TS 34.2502 -64.0095 main 976 933 P_____________ AL041957 34.2502 -64.0095 HU 77 972 1 9 320
1957245N13339 1957 51 NA NA CARRIE 1957-09-17 06:00:00 TS 34.6000 -64.3000 75 974 hurdat_atl main 933 899 O_____________ hurdat_atl AL041957 34.6000 -64.3000 HU 75 974 1 8 337
1957245N13339 1957 51 NA NA CARRIE 1957-09-17 09:00:00 TS 34.9645 -64.3701 main 890 871 P_____________ AL041957 34.9645 -64.3701 HU 75 974 1 7 6
1957245N13339 1957 51 NA NA CARRIE 1957-09-17 12:00:00 TS 35.3000 -64.2000 75 975 hurdat_atl main 871 859 O_____________ hurdat_atl AL041957 35.3000 -64.2000 HU 75 975 1 8 35
1957245N13339 1957 51 NA NA CARRIE 1957-09-17 15:00:00 TS 35.5875 -63.8330 main 865 861 P_____________ AL041957 35.5875 -63.8330 HU 75 976 1 9 56
1957245N13339 1957 51 NA NA CARRIE 1957-09-17 18:00:00 TS 35.8000 -63.3000 75 978 hurdat_atl main 873 866 O_____________ hurdat_atl AL041957 35.8000 -63.3000 HU 75 978 1 10 69
1957245N13339 1957 51 NA NA CARRIE 1957-09-17 21:00:00 TS 35.9373 -62.7373 main 874 865 P_____________ AL041957 35.9373 -62.7373 HU 72 978 1 10 78
1957245N13339 1957 51 NA NA CARRIE 1957-09-18 00:00:00 TS 36.0000 -62.1000 70 hurdat_atl main 877 877 I_____________ hurdat_atl AL041957 36.0000 -62.1000 HU 70 978 1 11 85
1957245N13339 1957 51 NA NA CARRIE 1957-09-18 03:00:00 TS 36.0223 -61.4148 main 898 898 P_____________ AL041957 36.0223 -61.4148 HU 70 978 1 11 90
1957245N13339 1957 51 NA NA CARRIE 1957-09-18 06:00:00 TS 36.0000 -60.7000 70 978 hurdat_atl main 921 921 O_____________ hurdat_atl AL041957 36.0000 -60.7000 HU 70 978 1 11 92
1957245N13339 1957 51 NA NA CARRIE 1957-09-18 09:00:00 TS 35.9795 -60.0080 main 948 948 P_____________ AL041957 35.9795 -60.0080 HU 70 978 1 11 95
1957245N13339 1957 51 NA NA CARRIE 1957-09-18 12:00:00 TS 35.9000 -59.3000 70 978 hurdat_atl main 988 988 O_____________ hurdat_atl AL041957 35.9000 -59.3000 HU 70 978 1 12 103
1957245N13339 1957 51 NA NA CARRIE 1957-09-18 15:00:00 TS 35.7145 -58.5645 main 1039 1039 P_____________ AL041957 35.7145 -58.5645 HU 70 1 13 108
1957245N13339 1957 51 NA NA CARRIE 1957-09-18 18:00:00 TS 35.5000 -57.8000 70 hurdat_atl main 1096 1096 O_____________ hurdat_atl AL041957 35.5000 -57.8000 HU 70 1 13 106
1957245N13339 1957 51 NA NA CARRIE 1957-09-18 21:00:00 TS 35.3424 -56.9929 main 1154 1154 P_____________ AL041957 35.3424 -56.9929 HU 72 1 13 103
1957245N13339 1957 51 NA NA CARRIE 1957-09-19 00:00:00 TS 35.2000 -56.2000 75 hurdat_atl main 1187 1187 O_____________ hurdat_atl AL041957 35.2000 -56.2000 HU 75 1 13 104
1957245N13339 1957 51 NA NA CARRIE 1957-09-19 03:00:00 TS 35.0418 -55.4852 main 1229 1229 P_____________ AL041957 35.0418 -55.4852 HU 75 1 12 105
1957245N13339 1957 51 NA NA CARRIE 1957-09-19 06:00:00 TS 34.9000 -54.8000 75 hurdat_atl main 1263 1263 O_____________ hurdat_atl AL041957 34.9000 -54.8000 HU 75 1 12 102
1957245N13339 1957 51 NA NA CARRIE 1957-09-19 09:00:00 TS 34.7920 -54.1079 main 1299 1299 P_____________ AL041957 34.7920 -54.1079 HU 77 1 12 100
1957245N13339 1957 51 NA NA CARRIE 1957-09-19 12:00:00 TS 34.7000 -53.4000 80 970 hurdat_atl main 1324 1324 O_____________ hurdat_atl AL041957 34.7000 -53.4000 HU 80 970 1 12 99
1957245N13339 1957 51 NA NA CARRIE 1957-09-19 15:00:00 TS 34.5924 -52.6424 main 1336 1336 P_____________ AL041957 34.5924 -52.6424 HU 82 1 12 99
1957245N13339 1957 51 NA NA CARRIE 1957-09-19 18:00:00 TS 34.5000 -51.9000 85 hurdat_atl main 1350 1350 O_____________ hurdat_atl AL041957 34.5000 -51.9000 HU 85 2 12 97
1957245N13339 1957 51 NA NA CARRIE 1957-09-19 21:00:00 TS 34.4418 -51.2428 main 1367 1367 P_____________ AL041957 34.4418 -51.2428 HU 85 2 11 95
1957245N13339 1957 51 NA NA CARRIE 1957-09-20 00:00:00 TS 34.4000 -50.6000 85 hurdat_atl main 1374 1374 O_____________ hurdat_atl AL041957 34.4000 -50.6000 HU 85 2 11 95
1957245N13339 1957 51 NA NA CARRIE 1957-09-20 03:00:00 TS 34.3496 -49.9151 main 1396 1396 P_____________ AL041957 34.3496 -49.9151 HU 87 2 12 95
1957245N13339 1957 51 NA NA CARRIE 1957-09-20 06:00:00 TS 34.3000 -49.2000 90 hurdat_atl main 1409 1409 O_____________ hurdat_atl AL041957 34.3000 -49.2000 HU 90 2 12 95
1957245N13339 1957 51 NA NA CARRIE 1957-09-20 09:00:00 TS 34.2419 -48.4724 main 1435 1435 P_____________ AL041957 34.2419 -48.4724 HU 92 2 12 95
1957245N13339 1957 51 NA NA CARRIE 1957-09-20 12:00:00 TS 34.2000 -47.7000 95 hurdat_atl main 1454 1454 O_____________ hurdat_atl AL041957 34.2000 -47.7000 HU 95 2 13 93
1957245N13339 1957 51 NA NA CARRIE 1957-09-20 15:00:00 TS 34.1842 -46.8874 main 1477 1477 P_____________ AL041957 34.1842 -46.8874 HU 95 2 14 90
1957245N13339 1957 51 NA NA CARRIE 1957-09-20 18:00:00 TS 34.2000 -46.0000 95 hurdat_atl main 1506 1506 O_____________ hurdat_atl AL041957 34.2000 -46.0000 HU 95 2 15 88
1957245N13339 1957 51 NA NA CARRIE 1957-09-20 21:00:00 TS 34.2347 -45.0224 main 1541 1541 P_____________ AL041957 34.2347 -45.0224 HU 92 2 17 87
1957245N13339 1957 51 NA NA CARRIE 1957-09-21 00:00:00 TS 34.3000 -44.0000 90 hurdat_atl main 1570 1570 O_____________ hurdat_atl AL041957 34.3000 -44.0000 HU 90 2 17 85
1957245N13339 1957 51 NA NA CARRIE 1957-09-21 03:00:00 TS 34.3917 -43.0000 main 1603 1603 P_____________ AL041957 34.3917 -43.0000 HU 90 2 17 83
1957245N13339 1957 51 NA NA CARRIE 1957-09-21 06:00:00 TS 34.5000 -42.0000 90 hurdat_atl main 1640 1640 O_____________ hurdat_atl AL041957 34.5000 -42.0000 HU 90 2 17 83
1957245N13339 1957 51 NA NA CARRIE 1957-09-21 09:00:00 TS 34.5917 -40.9995 main 1680 1680 P_____________ AL041957 34.5917 -40.9995 HU 87 2 17 83
1957245N13339 1957 51 NA NA CARRIE 1957-09-21 12:00:00 TS 34.7000 -40.0000 85 hurdat_atl main 1723 1723 O_____________ hurdat_atl AL041957 34.7000 -40.0000 HU 85 2 16 82
1957245N13339 1957 51 NA NA CARRIE 1957-09-21 15:00:00 TS 34.8259 -39.0291 main 1768 1765 P_____________ AL041957 34.8259 -39.0291 HU 82 1 17 80
1957245N13339 1957 51 NA NA CARRIE 1957-09-21 18:00:00 TS 35.0000 -38.0000 80 hurdat_atl main 1808 1808 O_____________ hurdat_atl AL041957 35.0000 -38.0000 HU 80 1 18 77
1957245N13339 1957 51 NA NA CARRIE 1957-09-21 21:00:00 TS 35.2262 -36.8593 main 1856 1856 P_____________ AL041957 35.2262 -36.8593 HU 80 1 20 76
1957245N13339 1957 51 NA NA CARRIE 1957-09-22 00:00:00 TS 35.5000 -35.6000 80 hurdat_atl main 1912 1838 O_____________ hurdat_atl AL041957 35.5000 -35.6000 HU 80 1 22 77
1957245N13339 1957 51 NA NA CARRIE 1957-09-22 03:00:00 TS 35.7306 -34.2628 main 1838 1741 P_____________ AL041957 35.7306 -34.2628 HU 77 1 23 75
1957245N13339 1957 51 NA NA CARRIE 1957-09-22 06:00:00 TS 36.1000 -32.8000 75 hurdat_atl main 1733 1646 O_____________ hurdat_atl AL041957 36.1000 -32.8000 HU 75 1 27 68
1957245N13339 1957 51 NA NA CARRIE 1957-09-22 09:00:00 TS 36.7169 -31.1872 main 1638 1570 P_____________ AL041957 36.7169 -31.1872 HU 75 1 30 62
1957245N13339 1957 51 NA NA CARRIE 1957-09-22 12:00:00 TS 37.5000 -29.5000 75 hurdat_atl main 1563 1507 O_____________ hurdat_atl AL041957 37.5000 -29.5000 HU 75 1 31 60
1957245N13339 1957 51 NA NA CARRIE 1957-09-22 15:00:00 TS 38.2812 -27.8230 main 1509 1446 P_____________ AL041957 38.2812 -27.8230 HU 72 1 31 57
1957245N13339 1957 51 NA NA CARRIE 1957-09-22 18:00:00 TS 39.2000 -26.2000 70 hurdat_atl main 1437 1307 O_____________ hurdat_atl AL041957 39.2000 -26.2000 HU 70 1 32 51
1957245N13339 1957 51 NA NA CARRIE 1957-09-22 21:00:00 TS 40.2893 -24.6169 main 1298 1160 P_____________ AL041957 40.2893 -24.6169 HU 70 1 32 45
1957245N13339 1957 51 NA NA CARRIE 1957-09-23 00:00:00 ET 41.5000 -23.2000 70 hurdat_atl main 1150 1039 O_____________ hurdat_atl AL041957 41.5000 -23.2000 EX 70 -4 32 38
1957245N13339 1957 51 NA NA CARRIE 1957-09-23 03:00:00 ET 42.7701 -22.0069 main 1030 953 P_____________ AL041957 42.7701 -22.0069 EX 70 -4 30 33
1957245N13339 1957 51 NA NA CARRIE 1957-09-23 06:00:00 ET 44.0000 -21.0000 70 hurdat_atl main 945 888 O_____________ hurdat_atl AL041957 44.0000 -21.0000 EX 70 -4 27 32
1957245N13339 1957 51 NA NA CARRIE 1957-09-23 09:00:00 ET 45.0359 -20.0635 main 888 845 P_____________ AL041957 45.0359 -20.0635 EX 67 -4 24 32
1957245N13339 1957 51 NA NA CARRIE 1957-09-23 12:00:00 ET 46.0000 -19.2000 65 hurdat_atl main 849 783 O_____________ hurdat_atl AL041957 46.0000 -19.2000 EX 65 -4 23 32
1957245N13339 1957 51 NA NA CARRIE 1957-09-23 15:00:00 ET 46.9999 -18.2684 main 775 658 P_____________ AL041957 46.9999 -18.2684 EX 62 -4 23 32
1957245N13339 1957 51 NA NA CARRIE 1957-09-23 18:00:00 ET 48.0000 -17.4000 60 hurdat_atl main 650 541 O_____________ hurdat_atl AL041957 48.0000 -17.4000 EX 60 -4 23 27
1957245N13339 1957 51 NA NA CARRIE 1957-09-23 21:00:00 ET 49.0737 -16.6759 main 535 438 P_____________ AL041957 49.0737 -16.6759 EX 57 -4 22 25
1957245N13339 1957 51 NA NA CARRIE 1957-09-24 00:00:00 ET 50.0000 -16.0000 55 hurdat_atl main 438 364 O_____________ hurdat_atl AL041957 50.0000 -16.0000 EX 55 -4 18 30
1957245N13339 1957 51 NA NA CARRIE 1957-09-24 03:00:00 ET 50.6342 -15.2706 main 364 296 P_____________ AL041957 50.6342 -15.2706 EX 55 -4 14 44
1957245N13339 1957 51 NA NA CARRIE 1957-09-24 06:00:00 ET 51.0000 -14.5000 55 hurdat_atl main 296 236 O_____________ hurdat_atl AL041957 51.0000 -14.5000 EX 55 -4 11 62
1957245N13339 1957 51 NA NA CARRIE 1957-09-24 09:00:00 ET 51.1745 -13.6700 main 236 178 P_____________ AL041957 51.1745 -13.6700 EX 52 -4 11 79
1957245N13339 1957 51 NA NA CARRIE 1957-09-24 12:00:00 ET 51.2000 -12.8000 50 hurdat_atl main 178 122 O_____________ hurdat_atl AL041957 51.2000 -12.8000 EX 50 -4 11 88
1957245N13339 1957 51 NA NA CARRIE 1957-09-24 15:00:00 ET 51.2148 -11.8917 main 122 70 P_____________ AL041957 51.2148 -11.8917 EX 47 -4 11 90
1957245N13339 1957 51 NA NA CARRIE 1957-09-24 18:00:00 ET 51.2000 -11.0000 45 hurdat_atl main 70 35 O_____________ hurdat_atl AL041957 51.2000 -11.0000 EX 45 -4 11 90
1957245N13339 1957 51 NA NA CARRIE 1957-09-24 21:00:00 ET 51.2144 -10.1707 main 35 22 P_____________ AL041957 51.2144 -10.1707 EX 42 -4 10 90
1957245N13339 1957 51 NA NA CARRIE 1957-09-25 00:00:00 ET 51.2000 -9.40000 40 hurdat_atl main 33 33 O_____________ hurdat_atl AL041957 51.2000 -9.40000 EX 40 -4 9 95
1957245N13339 1957 51 NA NA CARRIE 1957-09-25 03:00:00 ET 51.1373 -8.65527 main 46 46 P_____________ AL041957 51.1373 -8.65527 EX 37 -4 9 103
1957245N13339 1957 51 NA NA CARRIE 1957-09-25 06:00:00 ET 51.0000 -8.00000 35 hurdat_atl main 75 75 O_____________ hurdat_atl AL041957 51.0000 -8.00000 EX 35 -4 8 116
1957245N13339 1957 51 NA NA CARRIE 1957-09-25 09:00:00 ET 50.7718 -7.47010 main 112 102 P_____________ AL041957 50.7718 -7.47010 EX 35 -4 8 128
1957245N13339 1957 51 NA NA CARRIE 1957-09-25 12:00:00 ET 50.5000 -7.00000 35 hurdat_atl main 102 60 O_____________ hurdat_atl AL041957 50.5000 -7.00000 EX 35 -4 8 131
1957245N13339 1957 51 NA NA CARRIE 1957-09-25 15:00:00 ET 50.2432 -6.50915 main 57 24 P_____________ AL041957 50.2432 -6.50915 EX 35 -4 8 128
1957245N13339 1957 51 NA NA CARRIE 1957-09-25 18:00:00 ET 50.0000 -6.00000 35 hurdat_atl main 24 O_____________ hurdat_atl AL041957 50.0000 -6.00000 EX 35 -4 8 127

About IBTrACS Database

This database is a web-friendly format of International Best Track Archive for Climate Stewardship (IBTrACS), a global best track data archive curated by NOAA dating back to 1842.

Updated: 2021-12-06